sensor_id;sensor_type;location;lat;lon;timestamp;pressure;altitude;pressure_sealevel;temperature;humidity
22930;BME280;11630;42.660;23.292;2023-03-14T00:01:43;67991.91;;;4.11;86.10
22930;BME280;11630;42.660;23.292;2023-03-14T00:04:13;67995.16;;;4.14;85.47
22930;BME280;11630;42.660;23.292;2023-03-14T00:06:44;68003.55;;;4.23;85.99
22930;BME280;11630;42.660;23.292;2023-03-14T00:09:16;68009.21;;;4.27;84.49
22930;BME280;11630;42.660;23.292;2023-03-14T00:11:47;68013.55;;;4.31;83.30
22930;BME280;11630;42.660;23.292;2023-03-14T00:14:18;68002.20;;;4.23;84.16
22930;BME280;11630;42.660;23.292;2023-03-14T00:16:49;68013.25;;;4.29;83.63
22930;BME280;11630;42.660;23.292;2023-03-14T00:19:20;68009.73;;;4.25;83.41
22930;BME280;11630;42.660;23.292;2023-03-14T00:21:52;67992.16;;;4.10;84.46
22930;BME280;11630;42.660;23.292;2023-03-14T00:24:22;67979.21;;;4.00;84.73
22930;BME280;11630;42.660;23.292;2023-03-14T00:26:57;67950.25;;;3.68;88.09
22930;BME280;11630;42.660;23.292;2023-03-14T00:29:27;67959.77;;;3.82;87.45
22930;BME280;11630;42.660;23.292;2023-03-14T00:31:57;67968.66;;;3.87;86.93
22930;BME280;11630;42.660;23.292;2023-03-14T00:34:31;67962.45;;;3.82;86.31
22930;BME280;11630;42.660;23.292;2023-03-14T00:37:02;67946.76;;;3.68;86.91
22930;BME280;11630;42.660;23.292;2023-03-14T00:39:32;67921.61;;;3.41;89.36
22930;BME280;11630;42.660;23.292;2023-03-14T00:42:06;67910.02;;;3.34;87.84
22930;BME280;11630;42.660;23.292;2023-03-14T00:44:38;67905.70;;;3.33;86.78
22930;BME280;11630;42.660;23.292;2023-03-14T00:47:08;67925.73;;;3.54;87.51
22930;BME280;11630;42.660;23.292;2023-03-14T00:49:39;67928.64;;;3.50;88.47
22930;BME280;11630;42.660;23.292;2023-03-14T00:52:10;67931.63;;;3.54;88.91
22930;BME280;11630;42.660;23.292;2023-03-14T00:54:41;67894.91;;;3.23;91.25
22930;BME280;11630;42.660;23.292;2023-03-14T00:57:12;67893.02;;;3.22;90.87
22930;BME280;11630;42.660;23.292;2023-03-14T00:59:42;67891.67;;;3.22;90.06
22930;BME280;11630;42.660;23.292;2023-03-14T01:02:13;67889.48;;;3.15;90.60
22930;BME280;11630;42.660;23.292;2023-03-14T01:04:46;67896.51;;;3.22;90.48
22930;BME280;11630;42.660;23.292;2023-03-14T01:07:16;67902.18;;;3.28;90.52
22930;BME280;11630;42.660;23.292;2023-03-14T01:09:49;67901.89;;;3.24;91.15
22930;BME280;11630;42.660;23.292;2023-03-14T01:12:18;67910.28;;;3.33;91.60
22930;BME280;11630;42.660;23.292;2023-03-14T01:14:49;67921.90;;;3.45;91.52
22930;BME280;11630;42.660;23.292;2023-03-14T01:17:23;67935.42;;;3.60;91.13
22930;BME280;11630;42.660;23.292;2023-03-14T01:19:55;67899.20;;;3.24;91.29
22930;BME280;11630;42.660;23.292;2023-03-14T01:22:26;67902.98;;;3.28;90.48
22930;BME280;11630;42.660;23.292;2023-03-14T01:24:56;67912.17;;;3.36;89.95
22930;BME280;11630;42.660;23.292;2023-03-14T01:27:28;67911.39;;;3.39;90.11
22930;BME280;11630;42.660;23.292;2023-03-14T01:29:59;67915.95;;;3.40;90.64
22930;BME280;11630;42.660;23.292;2023-03-14T01:32:29;67892.73;;;3.18;90.69
22930;BME280;11630;42.660;23.292;2023-03-14T01:35:01;67887.35;;;3.16;90.59
22930;BME280;11630;42.660;23.292;2023-03-14T01:37:33;67907.08;;;3.35;89.43
22930;BME280;11630;42.660;23.292;2023-03-14T01:40:05;67921.90;;;3.45;89.92
22930;BME280;11630;42.660;23.292;2023-03-14T01:42:36;67911.91;;;3.37;89.61
22930;BME280;11630;42.660;23.292;2023-03-14T01:45:52;67931.91;;;3.56;89.31
22930;BME280;11630;42.660;23.292;2023-03-14T01:47:49;67921.13;;;3.48;89.19
22930;BME280;11630;42.660;23.292;2023-03-14T01:50:20;67901.38;;;3.26;89.90
22930;BME280;11630;42.660;23.292;2023-03-14T01:52:52;67907.55;;;3.28;90.43
22930;BME280;11630;42.660;23.292;2023-03-14T01:55:23;67890.81;;;3.15;90.00
22930;BME280;11630;42.660;23.292;2023-03-14T01:57:58;67889.45;;;3.10;90.31
22930;BME280;11630;42.660;23.292;2023-03-14T02:00:29;67875.73;;;3.06;91.30
22930;BME280;11630;42.660;23.292;2023-03-14T02:03:05;67867.36;;;2.98;90.73
22930;BME280;11630;42.660;23.292;2023-03-14T02:05:38;67866.83;;;3.00;90.89
22930;BME280;11630;42.660;23.292;2023-03-14T02:08:17;67867.63;;;2.97;90.41
22930;BME280;11630;42.660;23.292;2023-03-14T02:10:48;67866.53;;;2.96;89.81
22930;BME280;11630;42.660;23.292;2023-03-14T02:13:19;67864.89;;;2.92;89.94
22930;BME280;11630;42.660;23.292;2023-03-14T02:15:50;67882.74;;;3.10;90.07
22930;BME280;11630;42.660;23.292;2023-03-14T02:18:21;67874.87;;;3.00;91.26
22930;BME280;11630;42.660;23.292;2023-03-14T02:21:00;67868.96;;;2.97;89.74
22930;BME280;11630;42.660;23.292;2023-03-14T02:26:17;67856.28;;;2.86;88.29
22930;BME280;11630;42.660;23.292;2023-03-14T02:28:46;67852.52;;;2.85;88.84
22930;BME280;11630;42.660;23.292;2023-03-14T02:31:17;67877.84;;;3.01;89.13
22930;BME280;11630;42.660;23.292;2023-03-14T02:33:49;67896.20;;;3.18;89.46
22930;BME280;11630;42.660;23.292;2023-03-14T02:36:20;67869.51;;;3.00;89.65
22930;BME280;11630;42.660;23.292;2023-03-14T02:39:08;67853.59;;;2.84;89.51
22930;BME280;11630;42.660;23.292;2023-03-14T02:41:38;67842.52;;;2.75;90.98
22930;BME280;11630;42.660;23.292;2023-03-14T02:44:08;67841.13;;;2.70;90.42
22930;BME280;11630;42.660;23.292;2023-03-14T02:46:39;67829.03;;;2.65;91.67
22930;BME280;11630;42.660;23.292;2023-03-14T02:49:12;67839.78;;;2.70;92.03
22930;BME280;11630;42.660;23.292;2023-03-14T02:51:43;67855.47;;;2.87;92.36
22930;BME280;11630;42.660;23.292;2023-03-14T02:54:15;67873.56;;;3.02;92.29
22930;BME280;11630;42.660;23.292;2023-03-14T02:56:47;67902.16;;;3.26;90.56
22930;BME280;11630;42.660;23.292;2023-03-14T02:59:20;67914.59;;;3.37;89.48
22930;BME280;11630;42.660;23.292;2023-03-14T03:01:54;67940.28;;;3.62;88.32
22930;BME280;11630;42.660;23.292;2023-03-14T03:04:24;67932.45;;;3.56;87.66
22930;BME280;11630;42.660;23.292;2023-03-14T03:06:55;67930.30;;;3.57;87.52
22930;BME280;11630;42.660;23.292;2023-03-14T03:09:26;67919.47;;;3.44;88.42
22930;BME280;11630;42.660;23.292;2023-03-14T03:11:57;67922.17;;;3.47;88.25
22930;BME280;11630;42.660;23.292;2023-03-14T03:14:27;67914.91;;;3.41;87.63
22930;BME280;11630;42.660;23.292;2023-03-14T03:16:59;67908.14;;;3.36;87.55
22930;BME280;11630;42.660;23.292;2023-03-14T03:19:29;67906.25;;;3.33;87.54
22930;BME280;11630;42.660;23.292;2023-03-14T03:21:59;67895.46;;;3.26;88.51
22930;BME280;11630;42.660;23.292;2023-03-14T03:24:30;67889.77;;;3.17;89.67
22930;BME280;11630;42.660;23.292;2023-03-14T03:27:01;67873.29;;;3.03;89.67
22930;BME280;11630;42.660;23.292;2023-03-14T03:29:31;67837.11;;;2.70;90.99
22930;BME280;11630;42.660;23.292;2023-03-14T03:32:01;67823.33;;;2.56;91.15
22930;BME280;11630;42.660;23.292;2023-03-14T03:34:32;67815.77;;;2.49;91.41
22930;BME280;11630;42.660;23.292;2023-03-14T03:37:02;67798.77;;;2.32;92.82
22930;BME280;11630;42.660;23.292;2023-03-14T03:39:33;67796.61;;;2.30;93.02
22930;BME280;11630;42.660;23.292;2023-03-14T03:42:04;67799.06;;;2.36;93.36
22930;BME280;11630;42.660;23.292;2023-03-14T03:44:35;67838.72;;;2.69;93.53
22930;BME280;11630;42.660;23.292;2023-03-14T03:47:06;67850.63;;;2.85;93.16
22930;BME280;11630;42.660;23.292;2023-03-14T03:49:40;67894.09;;;3.21;91.23
22930;BME280;11630;42.660;23.292;2023-03-14T03:52:12;67898.94;;;3.23;90.00
22930;BME280;11630;42.660;23.292;2023-03-14T03:54:44;67823.30;;;2.51;92.28
22930;BME280;11630;42.660;23.292;2023-03-14T03:57:16;67776.13;;;2.14;93.49
22930;BME280;11630;42.660;23.292;2023-03-14T03:59:47;67767.45;;;2.03;95.21
22930;BME280;11630;42.660;23.292;2023-03-14T04:02:18;67779.84;;;2.12;95.57
22930;BME280;11630;42.660;23.292;2023-03-14T04:04:48;67791.98;;;2.22;95.90
22930;BME280;11630;42.660;23.292;2023-03-14T04:07:19;67810.38;;;2.44;95.09
22930;BME280;11630;42.660;23.292;2023-03-14T04:09:50;67829.00;;;2.60;94.27
22930;BME280;11630;42.660;23.292;2023-03-14T04:12:21;67868.16;;;2.97;93.60
22930;BME280;11630;42.660;23.292;2023-03-14T04:14:52;67848.19;;;2.81;93.37
22930;BME280;11630;42.660;23.292;2023-03-14T04:17:22;67870.31;;;2.99;92.73
22930;BME280;11630;42.660;23.292;2023-03-14T04:19:54;67841.95;;;2.72;94.09
22930;BME280;11630;42.660;23.292;2023-03-14T04:22:24;67846.83;;;2.79;94.23
22930;BME280;11630;42.660;23.292;2023-03-14T04:24:55;67851.69;;;2.83;93.29
22930;BME280;11630;42.660;23.292;2023-03-14T04:27:26;67857.06;;;2.86;93.66
22930;BME280;11630;42.660;23.292;2023-03-14T04:30:00;67831.68;;;2.60;93.78
22930;BME280;11630;42.660;23.292;2023-03-14T04:32:31;67794.72;;;2.29;94.68
22930;BME280;11630;42.660;23.292;2023-03-14T04:35:02;67799.30;;;2.32;96.09
22930;BME280;11630;42.660;23.292;2023-03-14T04:37:33;67817.37;;;2.48;95.68
22930;BME280;11630;42.660;23.292;2023-03-14T04:40:05;67821.95;;;2.51;95.45
22930;BME280;11630;42.660;23.292;2023-03-14T04:42:36;67793.09;;;2.26;95.15
22930;BME280;11630;42.660;23.292;2023-03-14T04:45:09;67779.91;;;2.17;95.70
22930;BME280;11630;42.660;23.292;2023-03-14T04:47:39;67762.31;;;1.97;96.76
22930;BME280;11630;42.660;23.292;2023-03-14T04:50:10;67743.70;;;1.81;97.44
22930;BME280;11630;42.660;23.292;2023-03-14T04:52:41;67725.66;;;1.66;98.33
22930;BME280;11630;42.660;23.292;2023-03-14T04:55:13;67738.06;;;1.77;98.62
22930;BME280;11630;42.660;23.292;2023-03-14T04:57:44;67749.65;;;1.87;98.73
22930;BME280;11630;42.660;23.292;2023-03-14T05:00:15;67789.58;;;2.24;98.82
22930;BME280;11630;42.660;23.292;2023-03-14T05:02:46;67809.55;;;2.42;97.53
22930;BME280;11630;42.660;23.292;2023-03-14T05:05:16;67765.86;;;2.04;97.94
22930;BME280;11630;42.660;23.292;2023-03-14T05:07:46;67781.50;;;2.16;98.41
22930;BME280;11630;42.660;23.292;2023-03-14T05:10:16;67813.35;;;2.48;98.20
22930;BME280;11630;42.660;23.292;2023-03-14T05:12:48;67842.52;;;2.75;97.18
22930;BME280;11630;42.660;23.292;2023-03-14T05:15:20;67849.78;;;2.80;95.88
22930;BME280;11630;42.660;23.292;2023-03-14T05:17:51;67814.41;;;2.46;96.84
22930;BME280;11630;42.660;23.292;2023-03-14T05:20:22;67787.95;;;2.20;98.04
22930;BME280;11630;42.660;23.292;2023-03-14T05:22:54;67776.91;;;2.13;99.10
22930;BME280;11630;42.660;23.292;2023-03-14T05:25:24;67808.48;;;2.43;98.23
22930;BME280;11630;42.660;23.292;2023-03-14T05:27:56;67849.51;;;2.79;96.50
22930;BME280;11630;42.660;23.292;2023-03-14T05:30:26;67888.66;;;3.13;94.32
22930;BME280;11630;42.660;23.292;2023-03-14T05:32:59;67911.66;;;3.38;92.99
22930;BME280;11630;42.660;23.292;2023-03-14T05:35:28;67939.20;;;3.61;92.07
22930;BME280;11630;42.660;23.292;2023-03-14T05:37:58;67961.06;;;3.80;91.40
22930;BME280;11630;42.660;23.292;2023-03-14T05:40:34;67976.78;;;3.99;90.44
22930;BME280;11630;42.660;23.292;2023-03-14T05:43:01;68002.98;;;4.20;89.76
22930;BME280;11630;42.660;23.292;2023-03-14T05:45:32;67988.67;;;4.08;88.28
22930;BME280;11630;42.660;23.292;2023-03-14T05:48:04;68037.06;;;4.53;87.07
22930;BME280;11630;42.660;23.292;2023-03-14T05:50:34;68058.41;;;4.69;86.27
22930;BME280;11630;42.660;23.292;2023-03-14T05:53:06;68042.19;;;4.54;85.52
22930;BME280;11630;42.660;23.292;2023-03-14T05:55:36;68057.06;;;4.69;85.14
22930;BME280;11630;42.660;23.292;2023-03-14T05:58:07;68047.36;;;4.63;85.13
22930;BME280;11630;42.660;23.292;2023-03-14T06:00:38;68071.67;;;4.80;85.50
22930;BME280;11630;42.660;23.292;2023-03-14T06:03:09;68055.47;;;4.70;85.01
22930;BME280;11630;42.660;23.292;2023-03-14T06:05:39;68046.81;;;4.62;84.39
22930;BME280;11630;42.660;23.292;2023-03-14T06:08:10;68067.89;;;4.79;82.21
22930;BME280;11630;42.660;23.292;2023-03-14T06:10:40;68040.03;;;4.53;82.14
22930;BME280;11630;42.660;23.292;2023-03-14T06:13:11;68001.91;;;4.21;83.59
22930;BME280;11630;42.660;23.292;2023-03-14T06:15:41;68049.22;;;4.61;83.30
22930;BME280;11630;42.660;23.292;2023-03-14T06:18:12;68037.06;;;4.53;84.79
22930;BME280;11630;42.660;23.292;2023-03-14T06:20:44;68064.09;;;4.73;83.29
22930;BME280;11630;42.660;23.292;2023-03-14T06:23:16;68072.52;;;4.87;82.59
22930;BME280;11630;42.660;23.292;2023-03-14T06:25:47;68084.70;;;4.97;81.58
22930;BME280;11630;42.660;23.292;2023-03-14T06:28:17;68112.30;;;5.23;81.61
22930;BME280;11630;42.660;23.292;2023-03-14T06:30:48;68144.78;;;5.52;79.69
22930;BME280;11630;42.660;23.292;2023-03-14T06:33:18;68140.42;;;5.46;79.15
22930;BME280;11630;42.660;23.292;2023-03-14T06:35:48;68164.77;;;5.66;78.33
22930;BME280;11630;42.660;23.292;2023-03-14T06:38:18;68156.66;;;5.58;77.91
22930;BME280;11630;42.660;23.292;2023-03-14T06:40:48;68163.68;;;5.65;76.66
22930;BME280;11630;42.660;23.292;2023-03-14T06:43:19;68190.03;;;5.98;75.13
22930;BME280;11630;42.660;23.292;2023-03-14T06:45:50;68261.23;;;6.57;71.93
22930;BME280;11630;42.660;23.292;2023-03-14T06:48:21;68262.02;;;6.51;69.35
22930;BME280;11630;42.660;23.292;2023-03-14T06:50:52;68279.67;;;6.76;66.09
22930;BME280;11630;42.660;23.292;2023-03-14T06:53:22;68305.13;;;6.94;66.84
22930;BME280;11630;42.660;23.292;2023-03-14T06:55:53;68346.35;;;7.35;64.25
22930;BME280;11630;42.660;23.292;2023-03-14T06:58:24;68327.10;;;7.16;62.78
22930;BME280;11630;42.660;23.292;2023-03-14T07:00:57;68288.86;;;6.80;64.50
22930;BME280;11630;42.660;23.292;2023-03-14T07:03:27;68302.98;;;6.95;64.40
22930;BME280;11630;42.660;23.292;2023-03-14T07:05:58;68295.39;;;6.88;67.37
22930;BME280;11630;42.660;23.292;2023-03-14T07:08:32;68336.05;;;7.23;63.90
22930;BME280;11630;42.660;23.292;2023-03-14T07:11:03;68391.93;;;7.76;61.83
22930;BME280;11630;42.660;23.292;2023-03-14T07:13:34;68397.61;;;7.80;61.54
22930;BME280;11630;42.660;23.292;2023-03-14T07:16:04;68442.95;;;8.23;60.64
22930;BME280;11630;42.660;23.292;2023-03-14T07:18:36;68433.17;;;8.14;59.48
22930;BME280;11630;42.660;23.292;2023-03-14T07:21:08;68432.39;;;8.17;57.38
22930;BME280;11630;42.660;23.292;2023-03-14T07:23:39;68443.50;;;8.21;57.79
22930;BME280;11630;42.660;23.292;2023-03-14T07:26:10;68436.41;;;8.12;59.84
22930;BME280;11630;42.660;23.292;2023-03-14T07:28:41;68500.49;;;8.71;56.82
22930;BME280;11630;42.660;23.292;2023-03-14T07:31:13;68474.98;;;8.50;56.78
22930;BME280;11630;42.660;23.292;2023-03-14T07:33:44;68487.48;;;8.66;55.56
22930;BME280;11630;42.660;23.292;2023-03-14T07:36:15;68495.08;;;8.71;55.33
22930;BME280;11630;42.660;23.292;2023-03-14T07:38:45;68593.67;;;9.62;89.19
22930;BME280;11630;42.660;23.292;2023-03-14T07:41:16;68608.34;;;9.73;75.63
22930;BME280;11630;42.660;23.292;2023-03-14T07:43:47;68684.77;;;10.47;93.27
22930;BME280;11630;42.660;23.292;2023-03-14T07:46:18;68681.23;;;10.42;96.92
22930;BME280;11630;42.660;23.292;2023-03-14T07:48:49;68916.70;;;12.53;100.00
22930;BME280;11630;42.660;23.292;2023-03-14T07:51:20;68681.78;;;10.43;56.51
22930;BME280;11630;42.660;23.292;2023-03-14T07:53:51;68660.84;;;10.20;56.96
22930;BME280;11630;42.660;23.292;2023-03-14T07:56:22;68865.77;;;12.13;62.16
22930;BME280;11630;42.660;23.292;2023-03-14T07:58:52;68795.20;;;11.40;60.38
22930;BME280;11630;42.660;23.292;2023-03-14T08:01:24;69018.12;;;13.48;74.40
22930;BME280;11630;42.660;23.292;2023-03-14T08:03:54;69204.78;;;15.11;70.33
22930;BME280;11630;42.660;23.292;2023-03-14T08:06:25;69300.94;;;16.08;57.19
22930;BME280;11630;42.660;23.292;2023-03-14T08:08:56;69389.83;;;16.83;55.09
22930;BME280;11630;42.660;23.292;2023-03-14T08:11:27;69375.86;;;16.74;54.13
22930;BME280;11630;42.660;23.292;2023-03-14T08:13:57;69134.34;;;14.57;46.42
22930;BME280;11630;42.660;23.292;2023-03-14T08:16:28;68975.05;;;13.11;43.07
22930;BME280;11630;42.660;23.292;2023-03-14T08:18:59;68944.22;;;12.80;54.73
22930;BME280;11630;42.660;23.292;2023-03-14T08:21:30;69142.00;;;14.56;55.59
22930;BME280;11630;42.660;23.292;2023-03-14T08:24:00;69158.09;;;14.74;54.06
22930;BME280;11630;42.660;23.292;2023-03-14T08:26:31;69339.49;;;16.42;54.89
22930;BME280;11630;42.660;23.292;2023-03-14T08:29:02;69355.89;;;16.57;47.39
22930;BME280;11630;42.660;23.292;2023-03-14T08:31:36;69369.87;;;16.63;42.30
22930;BME280;11630;42.660;23.292;2023-03-14T08:34:07;69444.57;;;17.27;44.13
22930;BME280;11630;42.660;23.292;2023-03-14T08:36:37;68991.39;;;13.21;40.44
22930;BME280;11630;42.660;23.292;2023-03-14T08:39:08;69000.38;;;13.31;42.62
22930;BME280;11630;42.660;23.292;2023-03-14T08:41:39;69002.03;;;13.32;42.78
22930;BME280;11630;42.660;23.292;2023-03-14T08:44:10;69049.75;;;13.77;53.07
22930;BME280;11630;42.660;23.292;2023-03-14T08:46:41;69231.56;;;15.42;48.75
22930;BME280;11630;42.660;23.292;2023-03-14T08:49:11;69246.03;;;15.54;38.05
22930;BME280;11630;42.660;23.292;2023-03-14T08:51:40;69031.75;;;13.56;39.79
22930;BME280;11630;42.660;23.292;2023-03-14T08:54:12;69019.20;;;13.57;41.74
22930;BME280;11630;42.660;23.292;2023-03-14T08:56:44;69090.41;;;14.13;39.89
22930;BME280;11630;42.660;23.292;2023-03-14T08:59:15;69122.05;;;14.44;38.53
22930;BME280;11630;42.660;23.292;2023-03-14T09:01:45;69031.46;;;13.62;42.93
22930;BME280;11630;42.660;23.292;2023-03-14T09:04:16;69163.53;;;14.84;40.24
22930;BME280;11630;42.660;23.292;2023-03-14T09:06:47;69303.70;;;16.03;44.11
22930;BME280;11630;42.660;23.292;2023-03-14T09:09:18;69341.98;;;16.38;40.82
22930;BME280;11630;42.660;23.292;2023-03-14T09:11:48;69302.86;;;16.06;43.93
22930;BME280;11630;42.660;23.292;2023-03-14T09:14:19;69252.31;;;15.61;37.96
22930;BME280;11630;42.660;23.292;2023-03-14T09:16:50;69107.88;;;14.26;44.87
22930;BME280;11630;42.660;23.292;2023-03-14T09:19:21;69208.59;;;15.19;37.75
22930;BME280;11630;42.660;23.292;2023-03-14T09:21:52;69121.78;;;14.38;37.13
22930;BME280;11630;42.660;23.292;2023-03-14T09:24:25;69234.84;;;15.43;36.94
22930;BME280;11630;42.660;23.292;2023-03-14T09:26:56;69257.49;;;15.67;33.43
22930;BME280;11630;42.660;23.292;2023-03-14T09:29:27;69156.45;;;14.73;35.86
22930;BME280;11630;42.660;23.292;2023-03-14T09:31:58;69230.19;;;15.38;35.52
22930;BME280;11630;42.660;23.292;2023-03-14T09:34:32;69274.42;;;15.88;35.40
22930;BME280;11630;42.660;23.292;2023-03-14T09:37:01;69333.48;;;16.34;34.80
22930;BME280;11630;42.660;23.292;2023-03-14T09:39:32;69345.25;;;16.46;33.78
22930;BME280;11630;42.660;23.292;2023-03-14T09:42:04;69251.22;;;15.60;34.80
22930;BME280;11630;42.660;23.292;2023-03-14T09:44:37;69257.52;;;15.62;35.50
22930;BME280;11630;42.660;23.292;2023-03-14T09:47:10;69269.25;;;15.74;39.17
22930;BME280;11630;42.660;23.292;2023-03-14T09:49:40;69248.76;;;15.57;35.58
22930;BME280;11630;42.660;23.292;2023-03-14T09:52:32;69374.78;;;16.70;42.46
22930;BME280;11630;42.660;23.292;2023-03-14T09:55:03;69396.66;;;16.88;35.16
22930;BME280;11630;42.660;23.292;2023-03-14T09:57:35;69424.28;;;17.14;37.36
22930;BME280;11630;42.660;23.292;2023-03-14T10:00:17;69494.34;;;17.75;32.68
22930;BME280;11630;42.660;23.292;2023-03-14T10:02:54;69526.92;;;18.06;31.67
22930;BME280;11630;42.660;23.292;2023-03-14T10:05:26;69376.40;;;16.74;32.85
22930;BME280;11630;42.660;23.292;2023-03-14T10:07:56;69336.77;;;16.37;33.46
22930;BME280;11630;42.660;23.292;2023-03-14T10:10:27;69262.70;;;15.73;34.63
22930;BME280;11630;42.660;23.292;2023-03-14T10:13:25;69336.50;;;16.38;35.72
22930;BME280;11630;42.660;23.292;2023-03-14T10:15:35;69413.05;;;17.07;34.57
22930;BME280;11630;42.660;23.292;2023-03-14T10:18:10;69467.80;;;17.55;32.72
22930;BME280;11630;42.660;23.292;2023-03-14T10:21:01;69457.92;;;17.51;32.58
22930;BME280;11630;42.660;23.292;2023-03-14T10:23:27;69443.44;;;17.34;34.13
22930;BME280;11630;42.660;23.292;2023-03-14T10:26:11;69522.55;;;18.02;32.48
22930;BME280;11630;42.660;23.292;2023-03-14T10:28:52;69566.64;;;18.41;33.29
22930;BME280;11630;42.660;23.292;2023-03-14T10:31:26;69565.27;;;18.43;31.12
22930;BME280;11630;42.660;23.292;2023-03-14T10:34:00;69568.25;;;18.50;31.59
22930;BME280;11630;42.660;23.292;2023-03-14T10:36:32;69571.30;;;18.46;33.45
22930;BME280;11630;42.660;23.292;2023-03-14T10:39:26;69633.16;;;19.10;31.10
22930;BME280;11630;42.660;23.292;2023-03-14T10:42:23;69439.88;;;17.29;32.56
22930;BME280;11630;42.660;23.292;2023-03-14T10:45:21;69524.72;;;18.04;32.11
22930;BME280;11630;42.660;23.292;2023-03-14T10:47:34;69485.31;;;17.73;32.69
22930;BME280;11630;42.660;23.292;2023-03-14T10:52:54;69436.34;;;17.27;33.54
22930;BME280;11630;42.660;23.292;2023-03-14T10:55:26;69447.00;;;17.36;33.36
22930;BME280;11630;42.660;23.292;2023-03-14T10:57:58;69490.77;;;17.78;33.21
22930;BME280;11630;42.660;23.292;2023-03-14T11:00:28;69500.91;;;17.86;32.60
22930;BME280;11630;42.660;23.292;2023-03-14T11:03:09;69550.49;;;18.27;32.12
22930;BME280;11630;42.660;23.292;2023-03-14T11:06:10;69522.78;;;18.08;32.48
22930;BME280;11630;42.660;23.292;2023-03-14T11:08:46;69465.09;;;17.45;32.92
22930;BME280;11630;42.660;23.292;2023-03-14T11:11:28;69370.98;;;16.62;34.29
22930;BME280;11630;42.660;23.292;2023-03-14T11:14:10;69443.42;;;17.36;33.29
22930;BME280;11630;42.660;23.292;2023-03-14T11:16:54;69453.27;;;17.45;33.30
22930;BME280;11630;42.660;23.292;2023-03-14T11:19:39;69324.17;;;16.25;35.37
22930;BME280;11630;42.660;23.292;2023-03-14T11:22:34;69480.92;;;17.69;33.43
22930;BME280;11630;42.660;23.292;2023-03-14T11:28:08;69480.94;;;17.67;33.87
22930;BME280;11630;42.660;23.292;2023-03-14T11:30:27;69513.22;;;17.96;33.27
22930;BME280;11630;42.660;23.292;2023-03-14T11:38:58;69568.29;;;18.40;33.04
22930;BME280;11630;42.660;23.292;2023-03-14T11:41:36;69572.17;;;18.36;32.62
22930;BME280;11630;42.660;23.292;2023-03-14T11:49:48;69750.05;;;20.01;30.32
22930;BME280;11630;42.660;23.292;2023-03-14T11:55:27;69710.73;;;19.76;30.75
22930;BME280;11630;42.660;23.292;2023-03-14T11:58:26;69813.89;;;20.65;29.78
22930;BME280;11630;42.660;23.292;2023-03-14T12:01:00;69832.63;;;20.77;29.14
22930;BME280;11630;42.660;23.292;2023-03-14T12:03:45;69701.70;;;19.67;31.02
22930;BME280;11630;42.660;23.292;2023-03-14T12:09:00;69806.84;;;20.48;30.05
22930;BME280;11630;42.660;23.292;2023-03-14T12:11:58;69724.72;;;19.88;30.35
22930;BME280;11630;42.660;23.292;2023-03-14T12:14:29;69725.30;;;19.86;30.88
22930;BME280;11630;42.660;23.292;2023-03-14T12:19:42;69835.09;;;20.75;29.54
22930;BME280;11630;42.660;23.292;2023-03-14T12:22:27;69828.44;;;20.82;29.03
22930;BME280;11630;42.660;23.292;2023-03-14T12:25:00;69852.03;;;21.03;28.77
22930;BME280;11630;42.660;23.292;2023-03-14T12:27:47;69872.06;;;21.20;28.04
22930;BME280;11630;42.660;23.292;2023-03-14T12:30:32;69859.18;;;21.07;28.60
22930;BME280;11630;42.660;23.292;2023-03-14T12:33:25;69915.75;;;21.53;27.72
22930;BME280;11630;42.660;23.292;2023-03-14T12:35:51;69909.94;;;21.59;28.08
22930;BME280;11630;42.660;23.292;2023-03-14T12:44:16;69714.88;;;19.79;29.33
22930;BME280;11630;42.660;23.292;2023-03-14T12:46:30;69805.95;;;20.56;29.04
22930;BME280;11630;42.660;23.292;2023-03-14T12:49:05;69836.67;;;20.87;28.10
22930;BME280;11630;42.660;23.292;2023-03-14T12:51:37;69872.28;;;21.29;27.78
22930;BME280;11630;42.660;23.292;2023-03-14T12:57:17;69877.31;;;21.21;27.98
22930;BME280;11630;42.660;23.292;2023-03-14T12:59:58;69900.19;;;21.30;27.69
22930;BME280;11630;42.660;23.292;2023-03-14T13:02:38;69897.31;;;21.43;27.68
22930;BME280;11630;42.660;23.292;2023-03-14T13:05:13;69937.66;;;21.83;27.17
22930;BME280;11630;42.660;23.292;2023-03-14T13:10:26;70054.30;;;22.71;25.97
22930;BME280;11630;42.660;23.292;2023-03-14T13:15:48;69938.78;;;21.81;26.49
22930;BME280;11630;42.660;23.292;2023-03-14T13:18:36;70032.51;;;22.60;25.95
22930;BME280;11630;42.660;23.292;2023-03-14T13:21:19;69987.37;;;22.29;26.18
22930;BME280;11630;42.660;23.292;2023-03-14T13:23:59;70057.22;;;22.85;26.09
22930;BME280;11630;42.660;23.292;2023-03-14T13:26:41;69986.60;;;22.20;25.84
22930;BME280;11630;42.660;23.292;2023-03-14T13:29:30;70008.38;;;22.33;26.23
22930;BME280;11630;42.660;23.292;2023-03-14T13:32:12;69851.83;;;20.94;27.75
22930;BME280;11630;42.660;23.292;2023-03-14T13:34:34;69934.41;;;21.77;26.83
22930;BME280;11630;42.660;23.292;2023-03-14T13:37:19;69891.64;;;21.26;27.16
22930;BME280;11630;42.660;23.292;2023-03-14T13:39:52;69891.38;;;21.25;27.17
22930;BME280;11630;42.660;23.292;2023-03-14T13:42:27;69892.66;;;21.40;26.52
22930;BME280;11630;42.660;23.292;2023-03-14T13:44:58;69908.81;;;21.61;26.46
22930;BME280;11630;42.660;23.292;2023-03-14T13:47:31;69771.92;;;20.30;27.76
22930;BME280;11630;42.660;23.292;2023-03-14T13:50:02;69685.03;;;19.45;28.90
22930;BME280;11630;42.660;23.292;2023-03-14T13:52:37;69867.42;;;21.14;26.94
22930;BME280;11630;42.660;23.292;2023-03-14T13:55:16;69922.55;;;21.73;26.37
22930;BME280;11630;42.660;23.292;2023-03-14T13:57:53;69871.22;;;21.23;26.89
22930;BME280;11630;42.660;23.292;2023-03-14T14:00:25;69848.50;;;20.96;27.33
22930;BME280;11630;42.660;23.292;2023-03-14T14:02:57;69878.08;;;21.28;26.33
22930;BME280;11630;42.660;23.292;2023-03-14T14:05:29;69896.52;;;21.41;26.44
22930;BME280;11630;42.660;23.292;2023-03-14T14:08:02;69911.63;;;21.56;26.00